Time;durP1;ratioP1;P1;durP2;ratioP2;P2;SDS_P1;SDS_P2;PMS_P1;PMS_P2;Temp;Humidity;BMP_temperature;BMP_pressure;BME280_temperature;BME280_humidity;BME280_pressure;Samples;Min_cycle;Max_cycle;Signal;HPM_P1;HPM_P2
2023/05/19 00:00:57;;;;;;;;;;;;;;;4.60;81.10;102862.56;5057106;28;19942;-74
2023/05/19 00:03:23;;;;;;;;;;;;;;;4.55;81.24;102862.28;5030539;28;19937;-71
2023/05/19 00:05:52;;;;;;;;;;;;;;;4.55;81.53;102857.00;5049450;28;19946;-72
2023/05/19 00:08:18;;;;;;;;;;;;;;;4.56;81.21;102845.38;5045153;28;19941;-71
2023/05/19 00:10:43;;;;;;;;;;;;;;;4.52;82.04;102849.38;5042051;28;19943;-72
2023/05/19 00:13:09;;;;;;;;;;;;;;;4.52;82.26;102853.84;5042230;28;19953;-71
2023/05/19 00:15:35;;;;;;;;;;;;;;;4.46;82.04;102855.38;5039109;28;20423;-71
2023/05/19 00:18:28;;;;;;;;;;;;;;;4.45;82.35;102864.34;5046604;28;19944;-73
2023/05/19 00:20:54;;;;;;;;;;;;;;;4.39;82.51;102862.41;5021421;28;19938;-72
2023/05/19 00:23:19;;;;;;;;;;;;;;;4.34;82.81;102862.13;5027541;28;19993;-72
2023/05/19 00:25:45;;;;;;;;;;;;;;;4.32;82.68;102856.16;5014147;28;19942;-72
2023/05/19 00:28:10;;;;;;;;;;;;;;;4.25;82.81;102871.13;5040406;28;19933;-72
2023/05/19 00:30:36;;;;;;;;;;;;;;;4.22;82.87;102860.88;5048306;28;19942;-71
2023/05/19 00:33:02;;;;;;;;;;;;;;;4.13;82.78;102853.94;5044877;28;20027;-74
2023/05/19 00:35:27;;;;;;;;;;;;;;;4.06;83.27;102857.31;5060854;28;19961;-71
2023/05/19 00:37:53;;;;;;;;;;;;;;;3.99;83.51;102850.22;5026934;28;19934;-73
2023/05/19 00:40:19;;;;;;;;;;;;;;;3.93;83.57;102850.91;5034811;28;19942;-72
2023/05/19 00:42:44;;;;;;;;;;;;;;;3.88;84.00;102848.78;5035509;28;20669;-71
2023/05/19 00:45:12;;;;;;;;;;;;;;;4.00;84.00;102850.06;5045066;28;20364;-73
2023/05/19 00:47:38;;;;;;;;;;;;;;;3.97;84.01;102845.09;5050543;28;19988;-75
2023/05/19 00:50:04;;;;;;;;;;;;;;;4.03;83.73;102851.53;5028901;28;19978;-74
2023/05/19 00:52:29;;;;;;;;;;;;;;;4.08;84.21;102842.06;5038658;28;19962;-74
2023/05/19 00:54:55;;;;;;;;;;;;;;;4.27;84.05;102845.25;5017590;28;20125;-74
2023/05/19 00:57:20;;;;;;;;;;;;;;;4.21;83.83;102852.09;5017985;28;19944;-73
2023/05/19 00:59:47;;;;;;;;;;;;;;;4.18;83.65;102841.00;5052774;28;19939;-71
2023/05/19 01:02:13;;;;;;;;;;;;;;;4.22;83.32;102843.13;5016954;28;20283;-73
2023/05/19 01:04:40;;;;;;;;;;;;;;;4.25;83.70;102844.59;5047598;28;20552;-74
2023/05/19 01:07:06;;;;;;;;;;;;;;;4.10;83.26;102839.22;5029096;28;19940;-73
2023/05/19 01:09:32;;;;;;;;;;;;;;;4.02;83.37;102848.06;5040881;28;19938;-75
2023/05/19 01:12:00;;;;;;;;;;;;;;;4.00;83.31;102846.59;5037822;28;19953;-73
2023/05/19 01:14:25;;;;;;;;;;;;;;;3.90;83.66;102841.50;5045916;28;20725;-72
2023/05/19 01:17:08;;;;;;;;;;;;;;;3.85;84.17;102843.81;5035234;28;20001;-72
2023/05/19 01:19:45;;;;;;;;;;;;;;;3.81;83.97;102845.19;5042576;28;19939;-72
2023/05/19 01:22:14;;;;;;;;;;;;;;;3.74;84.29;102847.69;5039529;28;19941;-72
2023/05/19 01:24:58;;;;;;;;;;;;;;;3.71;84.93;102855.16;5045517;28;20037;-72
2023/05/19 01:27:23;;;;;;;;;;;;;;;3.73;84.61;102853.19;5037600;28;19935;-71
2023/05/19 01:29:49;;;;;;;;;;;;;;;3.73;85.07;102847.88;5033013;28;20356;-72
2023/05/19 01:32:18;;;;;;;;;;;;;;;3.72;84.72;102848.84;5041235;28;20008;-73
2023/05/19 01:34:45;;;;;;;;;;;;;;;3.72;85.20;102846.22;5022366;28;20047;-72
2023/05/19 01:37:12;;;;;;;;;;;;;;;3.71;85.30;102855.97;5029427;28;19946;-72
2023/05/19 01:39:38;;;;;;;;;;;;;;;3.76;85.44;102851.00;5028279;28;19952;-74
2023/05/19 01:42:04;;;;;;;;;;;;;;;3.73;85.10;102853.19;5042816;28;19936;-72
2023/05/19 01:44:31;;;;;;;;;;;;;;;3.78;85.36;102851.63;5043364;28;19961;-72
2023/05/19 01:46:57;;;;;;;;;;;;;;;3.74;85.26;102860.13;5035345;28;19945;-72
2023/05/19 01:49:23;;;;;;;;;;;;;;;3.73;85.41;102856.66;5041705;28;20024;-71
2023/05/19 01:51:48;;;;;;;;;;;;;;;3.73;85.36;102853.19;5030214;28;20433;-72
2023/05/19 01:54:14;;;;;;;;;;;;;;;3.75;85.45;102859.94;5049910;28;19951;-71
2023/05/19 01:56:42;;;;;;;;;;;;;;;3.71;85.58;102861.28;5046804;28;20412;-71
2023/05/19 01:59:15;;;;;;;;;;;;;;;3.69;85.54;102870.41;5045479;28;20012;-71
2023/05/19 02:01:50;;;;;;;;;;;;;;;3.71;85.51;102863.09;5049970;28;19942;-71
2023/05/19 02:04:38;;;;;;;;;;;;;;;3.70;85.71;102870.22;5010125;28;19986;-71
2023/05/19 02:07:13;;;;;;;;;;;;;;;3.73;85.91;102858.47;5042951;28;19960;-71
2023/05/19 02:10:01;;;;;;;;;;;;;;;3.79;86.15;102863.06;5058612;28;20351;-75
2023/05/19 02:12:30;;;;;;;;;;;;;;;3.82;85.90;102860.09;5064757;28;19966;-75
2023/05/19 02:15:03;;;;;;;;;;;;;;;3.87;85.68;102871.00;5047005;28;20323;-74
2023/05/19 02:17:31;;;;;;;;;;;;;;;3.95;86.03;102868.31;5066321;28;19939;-74
2023/05/19 02:19:58;;;;;;;;;;;;;;;3.98;85.56;102860.00;5056887;28;20416;-73
2023/05/19 02:22:23;;;;;;;;;;;;;;;4.02;85.45;102861.31;5058669;28;20013;-72
2023/05/19 02:24:50;;;;;;;;;;;;;;;4.05;85.81;102858.28;5059398;28;20432;-71
2023/05/19 02:27:16;;;;;;;;;;;;;;;4.09;85.89;102864.09;5061962;28;20381;-73
2023/05/19 02:29:42;;;;;;;;;;;;;;;4.13;85.57;102853.94;5050682;28;19942;-73
2023/05/19 02:32:10;;;;;;;;;;;;;;;4.18;85.78;102851.59;5058673;28;20048;-74
2023/05/19 02:34:35;;;;;;;;;;;;;;;4.29;85.15;102838.78;5049375;28;19960;-75
2023/05/19 02:37:03;;;;;;;;;;;;;;;4.34;85.05;102843.56;5059265;28;19938;-74
2023/05/19 02:39:33;;;;;;;;;;;;;;;4.34;85.15;102843.56;5065194;28;20401;-73
2023/05/19 02:42:00;;;;;;;;;;;;;;;4.37;85.26;102840.53;5062056;28;19939;-75
2023/05/19 02:44:26;;;;;;;;;;;;;;;4.39;84.90;102839.34;5045482;28;19960;-74
2023/05/19 02:46:51;;;;;;;;;;;;;;;4.44;85.20;102840.66;5063161;28;20153;-72
2023/05/19 02:49:17;;;;;;;;;;;;;;;4.46;85.03;102838.63;5064744;28;19939;-73
2023/05/19 02:51:42;;;;;;;;;;;;;;;4.43;84.83;102844.31;5048329;28;19956;-72
2023/05/19 02:54:08;;;;;;;;;;;;;;;4.40;85.20;102840.16;5059725;28;20408;-73
2023/05/19 02:56:34;;;;;;;;;;;;;;;4.38;84.58;102836.88;5063317;28;19953;-73
2023/05/19 02:58:59;;;;;;;;;;;;;;;4.34;85.22;102835.59;5044187;28;19939;-73
2023/05/19 03:01:25;;;;;;;;;;;;;;;4.34;85.80;102830.28;5050882;28;19958;-73
2023/05/19 03:03:50;;;;;;;;;;;;;;;4.33;85.90;102836.56;5059338;28;20014;-74
2023/05/19 03:06:16;;;;;;;;;;;;;;;4.34;86.05;102835.59;5035443;28;19987;-74
2023/05/19 03:08:43;;;;;;;;;;;;;;;4.34;85.84;102835.59;5044705;28;19950;-75
2023/05/19 03:11:08;;;;;;;;;;;;;;;4.36;85.69;102829.09;5064543;28;20025;-74
2023/05/19 03:13:34;;;;;;;;;;;;;;;4.38;85.85;102834.22;5074417;28;20407;-74
2023/05/19 03:16:00;;;;;;;;;;;;;;;4.39;85.88;102826.06;5067217;28;19935;-74
2023/05/19 03:18:27;;;;;;;;;;;;;;;4.45;86.59;102824.53;5051388;28;19970;-73
2023/05/19 03:20:56;;;;;;;;;;;;;;;4.46;86.20;102826.19;5051048;28;19937;-71
2023/05/19 03:23:21;;;;;;;;;;;;;;;4.44;86.42;102822.91;5061677;28;19990;-71
2023/05/19 03:25:47;;;;;;;;;;;;;;;4.46;86.12;102825.38;5055301;28;19939;-74
2023/05/19 03:28:14;;;;;;;;;;;;;;;4.47;86.31;102825.22;5046800;28;19971;-71
2023/05/19 03:30:39;;;;;;;;;;;;;;;4.51;86.34;102823.84;5063325;28;19994;-74
2023/05/19 03:33:16;;;;;;;;;;;;;;;4.58;86.15;102830.09;5044446;28;20621;-74
2023/05/19 03:35:44;;;;;;;;;;;;;;;4.62;86.49;102823.44;5062934;28;19968;-73
2023/05/19 03:38:10;;;;;;;;;;;;;;;4.66;87.19;102824.69;5064711;28;20022;-74
2023/05/19 03:40:40;;;;;;;;;;;;;;;4.69;86.48;102818.22;5053431;28;20013;-74
2023/05/19 03:43:08;;;;;;;;;;;;;;;4.74;86.47;102825.63;5050218;28;19931;-72
2023/05/19 03:45:41;;;;;;;;;;;;;;;4.78;86.58;102826.94;5049850;28;20006;-72
2023/05/19 03:48:27;;;;;;;;;;;;;;;4.81;85.98;102826.56;5075340;28;19949;-72
2023/05/19 03:51:21;;;;;;;;;;;;;;;4.95;86.27;102825.78;5055649;28;19939;-74
2023/05/19 03:53:50;;;;;;;;;;;;;;;5.02;85.78;102828.53;5068603;28;20024;-74
2023/05/19 03:56:17;;;;;;;;;;;;;;;5.06;85.86;102827.97;5061891;28;19937;-73
2023/05/19 03:58:43;;;;;;;;;;;;;;;5.22;85.38;102828.84;5056121;28;20417;-72
2023/05/19 04:01:10;;;;;;;;;;;;;;;5.31;85.30;102833.84;5058410;28;19946;-71
2023/05/19 04:03:35;;;;;;;;;;;;;;;5.39;84.72;102836.41;5059841;28;20298;-74
2023/05/19 04:06:00;;;;;;;;;;;;;;;5.43;84.44;102836.88;5050451;28;19932;-73
2023/05/19 04:08:26;;;;;;;;;;;;;;;5.48;84.81;102845.94;5058057;28;19937;-73
2023/05/19 04:10:51;;;;;;;;;;;;;;;5.50;85.05;102837.78;5065978;28;19941;-74
2023/05/19 04:13:17;;;;;;;;;;;;;;;5.53;84.84;102845.38;5061383;28;20083;-71
2023/05/19 04:15:43;;;;;;;;;;;;;;;5.53;84.66;102832.09;5062816;28;20727;-72
2023/05/19 04:18:08;;;;;;;;;;;;;;;5.59;85.17;102841.16;5059404;28;19977;-72
2023/05/19 04:20:34;;;;;;;;;;;;;;;5.66;85.00;102839.41;5058240;28;19927;-71
2023/05/19 04:22:59;;;;;;;;;;;;;;;5.74;84.39;102845.44;5061495;28;20403;-70
2023/05/19 04:25:26;;;;;;;;;;;;;;;5.84;84.48;102847.00;5049442;28;20088;-74
2023/05/19 04:27:56;;;;;;;;;;;;;;;5.96;83.96;102842.88;5049557;28;20056;-72
2023/05/19 04:30:22;;;;;;;;;;;;;;;6.05;83.99;102836.44;5056409;28;19934;-71
2023/05/19 04:32:49;;;;;;;;;;;;;;;6.17;84.16;102848.25;5061642;28;19955;-71
2023/05/19 04:35:16;;;;;;;;;;;;;;;6.24;83.45;102838.50;5057071;28;20017;-72
2023/05/19 04:37:44;;;;;;;;;;;;;;;6.41;83.44;102841.69;5068305;28;19947;-71
2023/05/19 04:40:12;;;;;;;;;;;;;;;6.61;81.64;102841.88;5065098;28;19956;-72
2023/05/19 04:42:44;;;;;;;;;;;;;;;6.77;81.43;102841.63;5069407;28;20034;-73
2023/05/19 04:45:12;;;;;;;;;;;;;;;6.80;80.87;102843.06;5043717;28;19984;-71
2023/05/19 04:47:41;;;;;;;;;;;;;;;6.91;79.57;102849.69;5039552;28;19926;-74
2023/05/19 04:50:08;;;;;;;;;;;;;;;7.02;79.89;102843.84;5061167;28;19936;-72
2023/05/19 04:52:34;;;;;;;;;;;;;;;7.05;79.47;102840.81;5053431;28;19966;-72
2023/05/19 04:55:02;;;;;;;;;;;;;;;7.08;79.84;102843.06;5057173;28;19954;-73
2023/05/19 04:57:28;;;;;;;;;;;;;;;7.22;79.58;102839.47;5058936;28;19999;-71
2023/05/19 04:59:58;;;;;;;;;;;;;;;7.28;79.29;102843.19;5039901;28;20399;-74
2023/05/19 05:02:26;;;;;;;;;;;;;;;7.46;77.92;102848.03;5020934;28;20047;-74
2023/05/19 05:04:53;;;;;;;;;;;;;;;7.66;77.89;102857.75;5057456;28;19989;-72
2023/05/19 05:07:20;;;;;;;;;;;;;;;7.72;77.34;102847.28;5043595;28;20452;-76
2023/05/19 05:09:47;;;;;;;;;;;;;;;7.66;76.12;102856.94;5065661;28;19984;-73
2023/05/19 05:12:13;;;;;;;;;;;;;;;7.71;76.22;102854.47;5059263;28;19956;-74
2023/05/19 05:14:39;;;;;;;;;;;;;;;7.79;75.94;102846.31;5055750;28;19950;-72
2023/05/19 05:17:06;;;;;;;;;;;;;;;7.91;75.98;102850.03;5044473;28;20391;-72
2023/05/19 05:19:32;;;;;;;;;;;;;;;8.01;75.66;102859.53;5060921;28;19938;-72
2023/05/19 05:21:59;;;;;;;;;;;;;;;8.02;77.26;102861.16;5060937;28;19936;-74
2023/05/19 05:24:24;;;;;;;;;;;;;;;8.02;75.52;102855.84;5042518;28;19948;-74
2023/05/19 05:26:57;;;;;;;;;;;;;;;8.07;74.90;102858.72;5058432;28;20553;-74
2023/05/19 05:29:23;;;;;;;;;;;;;;;8.18;74.67;102861.63;5066497;28;19945;-74
2023/05/19 05:31:49;;;;;;;;;;;;;;;8.13;74.26;102850.75;5049982;28;19950;-74
2023/05/19 05:34:15;;;;;;;;;;;;;;;8.13;74.60;102855.25;5065025;28;19950;-75
2023/05/19 05:36:41;;;;;;;;;;;;;;;8.17;74.87;102848.47;5036123;28;19935;-75
2023/05/19 05:39:08;;;;;;;;;;;;;;;8.32;74.00;102854.44;5048075;28;20315;-72
2023/05/19 05:41:34;;;;;;;;;;;;;;;8.33;73.88;102848.13;5062356;28;20003;-72
2023/05/19 05:44:04;;;;;;;;;;;;;;;8.62;73.97;102846.09;5049610;28;20011;-73
2023/05/19 05:46:30;;;;;;;;;;;;;;;8.77;73.29;102833.38;5071575;28;20378;-72
2023/05/19 05:48:56;;;;;;;;;;;;;;;8.74;73.05;102845.28;5075304;28;19941;-71
2023/05/19 05:51:22;;;;;;;;;;;;;;;8.98;71.77;102843.81;5049511;28;19936;-70
2023/05/19 05:53:53;;;;;;;;;;;;;;;9.15;71.00;102846.06;5066679;28;19947;-72
2023/05/19 05:56:20;;;;;;;;;;;;;;;9.18;70.45;102845.66;5052763;28;19934;-74
2023/05/19 05:58:50;;;;;;;;;;;;;;;9.06;70.93;102849.97;5047596;28;19932;-71
2023/05/19 06:01:16;;;;;;;;;;;;;;;9.20;70.86;102848.94;5045662;28;19941;-71
2023/05/19 06:03:45;;;;;;;;;;;;;;;9.45;69.53;102847.22;5061778;28;19959;-72
2023/05/19 06:06:16;;;;;;;;;;;;;;;9.51;69.78;102849.06;5058320;28;19933;-73
2023/05/19 06:08:41;;;;;;;;;;;;;;;9.63;69.94;102843.88;5065332;28;19943;-73
2023/05/19 06:11:08;;;;;;;;;;;;;;;9.70;68.82;102847.34;5064485;28;19941;-71
2023/05/19 06:13:37;;;;;;;;;;;;;;;9.71;69.42;102848.97;5062150;28;20038;-71
2023/05/19 06:16:06;;;;;;;;;;;;;;;10.15;68.26;102849.97;5072849;28;19938;-70
2023/05/19 06:18:38;;;;;;;;;;;;;;;10.16;68.29;102856.16;5068901;28;20024;-74
2023/05/19 06:21:03;;;;;;;;;;;;;;;10.32;68.24;102853.00;5041826;28;20039;-74
2023/05/19 06:23:30;;;;;;;;;;;;;;;10.02;67.40;102856.22;5047196;28;19932;-74
2023/05/19 06:25:55;;;;;;;;;;;;;;;10.15;67.94;102852.66;5029966;28;19932;-73
2023/05/19 06:28:21;;;;;;;;;;;;;;;10.32;69.01;102855.69;5069174;28;19935;-74
2023/05/19 06:30:48;;;;;;;;;;;;;;;10.23;67.67;102848.94;5068914;28;19964;-72
2023/05/19 06:33:23;;;;;;;;;;;;;;;10.39;67.42;102851.09;5050747;28;20080;-74
2023/05/19 06:35:48;;;;;;;;;;;;;;;10.60;67.41;102848.06;5064935;28;20023;-72
2023/05/19 06:38:14;;;;;;;;;;;;;;;10.44;66.92;102845.94;5054631;28;20462;-72
2023/05/19 06:40:43;;;;;;;;;;;;;;;10.55;67.71;102841.72;5059401;28;19937;-75
2023/05/19 06:43:09;;;;;;;;;;;;;;;10.43;67.13;102851.47;5045496;28;19938;-75
2023/05/19 06:45:55;;;;;;;;;;;;;;;10.70;65.96;102847.56;5049266;28;19982;-72
2023/05/19 06:48:23;;;;;;;;;;;;;;;11.02;66.11;102853.66;5050791;28;20402;-73
2023/05/19 06:50:49;;;;;;;;;;;;;;;11.12;65.46;102848.63;5076748;28;19930;-72
2023/05/19 06:53:15;;;;;;;;;;;;;;;10.88;65.32;102846.78;5065059;28;19959;-74
2023/05/19 06:55:41;;;;;;;;;;;;;;;11.30;63.74;102847.81;5066535;28;19954;-74
2023/05/19 06:58:07;;;;;;;;;;;;;;;11.23;63.87;102841.69;5048452;28;19989;-70
2023/05/19 07:00:32;;;;;;;;;;;;;;;11.35;64.16;102841.78;5064821;28;20403;-74
2023/05/19 07:03:00;;;;;;;;;;;;;;;11.30;63.17;102844.31;5045583;28;19969;-73
2023/05/19 07:05:25;;;;;;;;;;;;;;;11.29;62.50;102845.34;5064515;28;20703;-72
2023/05/19 07:07:54;;;;;;;;;;;;;;;11.70;62.03;102848.16;5049480;28;20016;-74
2023/05/19 07:10:27;;;;;;;;;;;;;;;11.63;61.82;102839.38;5068195;28;20002;-71
2023/05/19 07:12:54;;;;;;;;;;;;;;;11.77;61.13;102846.22;5034412;28;19956;-73
2023/05/19 07:15:25;;;;;;;;;;;;;;;12.08;60.89;102849.78;5065250;28;20561;-73
2023/05/19 07:17:52;;;;;;;;;;;;;;;12.39;60.81;102842.50;5043101;28;20365;-72
2023/05/19 07:20:17;;;;;;;;;;;;;;;12.45;59.88;102838.88;5048826;28;19941;-71
2023/05/19 07:22:43;;;;;;;;;;;;;;;12.77;59.07;102845.59;5040879;28;19930;-73
2023/05/19 07:25:09;;;;;;;;;;;;;;;13.13;57.53;102836.47;5074903;28;20027;-74
2023/05/19 07:27:35;;;;;;;;;;;;;;;13.36;59.24;102838.34;5035765;28;19939;-71
2023/05/19 07:30:02;;;;;;;;;;;;;;;13.75;55.46;102845.84;5070120;28;19940;-72
2023/05/19 07:32:28;;;;;;;;;;;;;;;14.34;54.99;102841.81;5062476;28;19949;-74
2023/05/19 07:34:53;;;;;;;;;;;;;;;14.39;53.64;102843.78;5071705;28;19950;-72
2023/05/19 07:37:19;;;;;;;;;;;;;;;14.35;53.63;102846.13;5056618;28;19945;-73
2023/05/19 07:39:48;;;;;;;;;;;;;;;14.41;54.27;102842.47;5067993;28;19951;-73
2023/05/19 07:42:13;;;;;;;;;;;;;;;14.69;53.06;102846.19;5069896;28;20382;-75
2023/05/19 07:44:39;;;;;;;;;;;;;;;14.91;52.75;102838.97;5060102;28;20433;-73
2023/05/19 07:47:05;;;;;;;;;;;;;;;14.92;51.30;102840.63;5068682;28;19942;-73
2023/05/19 07:49:30;;;;;;;;;;;;;;;15.32;52.00;102841.44;5046210;28;19932;-73
2023/05/19 07:51:56;;;;;;;;;;;;;;;15.22;52.17;102842.09;5063781;28;19980;-75
2023/05/19 07:54:22;;;;;;;;;;;;;;;15.12;50.72;102839.28;5065055;28;19990;-73
2023/05/19 07:56:47;;;;;;;;;;;;;;;15.14;50.60;102837.94;5066291;28;19936;-74
2023/05/19 07:59:13;;;;;;;;;;;;;;;15.14;50.94;102842.53;5067944;28;19933;-75
2023/05/19 08:01:39;;;;;;;;;;;;;;;15.48;50.21;102838.66;5062483;28;19946;-76
2023/05/19 08:04:05;;;;;;;;;;;;;;;15.62;52.05;102835.59;5064828;28;19950;-75
2023/05/19 08:06:30;;;;;;;;;;;;;;;15.42;51.13;102828.03;5061779;28;19948;-73
2023/05/19 08:08:56;;;;;;;;;;;;;;;15.63;50.12;102840.75;5066134;28;19936;-75
2023/05/19 08:11:26;;;;;;;;;;;;;;;15.83;50.08;102823.94;5059619;28;20373;-73
2023/05/19 08:13:52;;;;;;;;;;;;;;;16.05;50.96;102830.13;5058453;28;19949;-74
2023/05/19 08:16:18;;;;;;;;;;;;;;;16.56;49.61;102841.38;5059544;28;20032;-75
2023/05/19 08:18:43;;;;;;;;;;;;;;;16.10;49.26;102829.34;5065153;28;19934;-75
2023/05/19 08:21:09;;;;;;;;;;;;;;;15.69;49.54;102822.72;5069892;28;19938;-73
2023/05/19 08:23:36;;;;;;;;;;;;;;;16.00;50.66;102829.28;5064144;28;19935;-74
2023/05/19 08:26:01;;;;;;;;;;;;;;;16.54;49.59;102829.19;5054828;28;19972;-72
2023/05/19 08:28:27;;;;;;;;;;;;;;;16.16;50.96;102832.94;5049936;28;19976;-73
2023/05/19 08:30:52;;;;;;;;;;;;;;;16.64;48.27;102827.38;5039761;28;19984;-73
2023/05/19 08:33:20;;;;;;;;;;;;;;;16.83;48.55;102816.16;5056038;28;20602;-73
2023/05/19 08:35:46;;;;;;;;;;;;;;;16.95;47.97;102819.50;5059092;28;19949;-72
2023/05/19 08:38:12;;;;;;;;;;;;;;;17.21;48.46;102817.75;5040798;28;20027;-73
2023/05/19 08:40:40;;;;;;;;;;;;;;;17.02;47.04;102819.25;5058630;28;20028;-74
2023/05/19 08:43:05;;;;;;;;;;;;;;;16.92;46.52;102820.81;5051500;28;19941;-74
2023/05/19 08:45:33;;;;;;;;;;;;;;;16.79;48.46;102815.06;5066387;28;19952;-74
2023/05/19 08:47:59;;;;;;;;;;;;;;;17.53;46.66;102804.03;5069222;28;20045;-73
2023/05/19 08:50:29;;;;;;;;;;;;;;;17.35;47.91;102808.06;5051284;28;20465;-71
2023/05/19 08:52:56;;;;;;;;;;;;;;;17.57;46.48;102809.75;5051797;28;21433;-73
2023/05/19 08:55:38;;;;;;;;;;;;;;;17.48;44.60;102804.03;5039984;28;19954;-75
2023/05/19 08:58:03;;;;;;;;;;;;;;;16.81;46.51;102802.91;5060814;28;19936;-73
2023/05/19 09:00:29;;;;;;;;;;;;;;;17.25;45.12;102793.63;5059450;28;19945;-72
2023/05/19 09:02:55;;;;;;;;;;;;;;;17.43;45.51;102798.59;5067670;28;19931;-72
2023/05/19 09:05:22;;;;;;;;;;;;;;;17.26;44.86;102795.25;5061252;28;19950;-70
2023/05/19 09:07:48;;;;;;;;;;;;;;;17.59;46.05;102792.13;5061414;28;19937;-74
2023/05/19 09:10:14;;;;;;;;;;;;;;;17.50;43.63;102791.03;5049642;28;20319;-74
2023/05/19 09:12:44;;;;;;;;;;;;;;;17.82;43.43;102792.78;5058545;28;20598;-72
2023/05/19 09:15:10;;;;;;;;;;;;;;;17.95;42.82;102781.38;5054319;28;20050;-72
2023/05/19 09:17:36;;;;;;;;;;;;;;;17.45;44.80;102791.81;5056961;28;19941;-72
2023/05/19 09:20:04;;;;;;;;;;;;;;;17.34;43.04;102784.75;5045528;28;19935;-73
2023/05/19 09:22:30;;;;;;;;;;;;;;;17.65;42.41;102788.34;5069146;28;20399;-75
2023/05/19 09:24:55;;;;;;;;;;;;;;;17.74;42.16;102783.25;5058762;28;19961;-73
2023/05/19 09:27:22;;;;;;;;;;;;;;;18.18;41.45;102794.41;5063815;28;20035;-73
2023/05/19 09:29:48;;;;;;;;;;;;;;;17.80;41.63;102787.59;5047931;28;19943;-72
2023/05/19 09:32:23;;;;;;;;;;;;;;;17.73;42.66;102789.75;5062203;28;19951;-72
2023/05/19 09:34:49;;;;;;;;;;;;;;;17.39;41.41;102773.09;5072151;28;19945;-73
2023/05/19 09:37:15;;;;;;;;;;;;;;;17.78;42.21;102778.13;5066188;28;19929;-73
2023/05/19 09:39:47;;;;;;;;;;;;;;;17.45;41.70;102782.88;5059888;28;19949;-74
2023/05/19 09:42:13;;;;;;;;;;;;;;;17.47;41.68;102772.59;5066601;28;19939;-75
2023/05/19 09:44:40;;;;;;;;;;;;;;;17.88;41.16;102783.53;5069267;28;19959;-71
2023/05/19 09:47:08;;;;;;;;;;;;;;;18.10;42.62;102781.41;5063376;28;19997;-74
2023/05/19 09:49:33;;;;;;;;;;;;;;;18.08;40.68;102775.41;5059503;28;20353;-74
2023/05/19 09:52:02;;;;;;;;;;;;;;;18.23;41.56;102769.22;5047516;28;19950;-72
2023/05/19 09:54:30;;;;;;;;;;;;;;;18.41;40.46;102767.81;5065504;28;19948;-74
2023/05/19 09:57:02;;;;;;;;;;;;;;;18.55;39.83;102769.69;5072576;28;19933;-74
2023/05/19 09:59:28;;;;;;;;;;;;;;;18.60;37.25;102768.88;5052161;28;19942;-73
2023/05/19 10:01:55;;;;;;;;;;;;;;;18.58;38.06;102764.81;5066418;28;20026;-75
2023/05/19 10:04:25;;;;;;;;;;;;;;;18.70;38.72;102759.94;5073242;28;20019;-72
2023/05/19 10:06:52;;;;;;;;;;;;;;;18.53;39.17;102765.63;5043526;28;19956;-74
2023/05/19 10:09:21;;;;;;;;;;;;;;;18.75;40.44;102763.44;5066439;28;19933;-72
2023/05/19 10:11:47;;;;;;;;;;;;;;;18.41;40.42;102755.06;5060760;28;19981;-71
2023/05/19 10:14:14;;;;;;;;;;;;;;;17.99;39.82;102758.06;5042925;28;20140;-72
2023/05/19 10:16:40;;;;;;;;;;;;;;;18.60;39.21;102747.16;5045964;28;20915;-73
2023/05/19 10:19:06;;;;;;;;;;;;;;;18.62;39.69;102738.75;5074450;28;20393;-73
2023/05/19 10:21:32;;;;;;;;;;;;;;;18.65;39.58;102744.44;5048477;28;19933;-73
2023/05/19 10:23:57;;;;;;;;;;;;;;;17.87;39.83;102741.25;5067097;28;19957;-74
2023/05/19 10:26:23;;;;;;;;;;;;;;;18.36;40.99;102736.09;5065420;28;19989;-74
2023/05/19 10:28:50;;;;;;;;;;;;;;;18.65;42.30;102744.44;5052235;28;20432;-73
2023/05/19 10:31:18;;;;;;;;;;;;;;;18.67;40.96;102726.00;5056477;28;19981;-75
2023/05/19 10:34:03;;;;;;;;;;;;;;;19.02;39.53;102727.78;5064682;28;19955;-75
2023/05/19 10:36:41;;;;;;;;;;;;;;;18.65;39.71;102728.16;5062652;28;19938;-75
2023/05/19 10:39:12;;;;;;;;;;;;;;;18.63;39.97;102722.22;5061354;28;19940;-73
2023/05/19 10:41:46;;;;;;;;;;;;;;;18.64;39.53;102718.41;5053715;28;19930;-73
2023/05/19 10:44:17;;;;;;;;;;;;;;;18.44;39.92;102721.16;5031766;28;20063;-73
2023/05/19 10:46:43;;;;;;;;;;;;;;;19.13;38.71;102716.88;5057064;28;19965;-75
2023/05/19 10:49:08;;;;;;;;;;;;;;;19.08;38.70;102710.38;5046242;28;19930;-74
2023/05/19 10:51:35;;;;;;;;;;;;;;;18.81;37.69;102718.91;5060200;28;20352;-72
2023/05/19 10:54:02;;;;;;;;;;;;;;;18.92;38.84;102719.69;5066576;28;19947;-73
2023/05/19 10:56:29;;;;;;;;;;;;;;;19.17;38.29;102717.94;5062949;28;19967;-74
2023/05/19 10:58:56;;;;;;;;;;;;;;;19.53;37.54;102711.22;5063056;28;19934;-73
2023/05/19 11:01:23;;;;;;;;;;;;;;;19.95;37.34;102707.09;5070061;28;20835;-73
2023/05/19 11:03:50;;;;;;;;;;;;;;;19.83;38.04;102710.19;5066404;28;19955;-74
2023/05/19 11:06:17;;;;;;;;;;;;;;;19.87;36.22;102705.00;5054220;28;19962;-74
2023/05/19 11:08:42;;;;;;;;;;;;;;;19.53;37.61;102710.41;5059790;28;20069;-74
2023/05/19 11:11:12;;;;;;;;;;;;;;;18.64;37.65;102715.69;5059426;28;20016;-72
2023/05/19 11:13:39;;;;;;;;;;;;;;;19.01;37.75;102706.34;5061113;28;19960;-72
2023/05/19 11:16:08;;;;;;;;;;;;;;;19.38;39.53;102708.59;5059140;28;19935;-73
2023/05/19 11:18:34;;;;;;;;;;;;;;;19.22;36.04;102707.84;5052278;28;20035;-73
2023/05/19 11:21:03;;;;;;;;;;;;;;;19.40;36.33;102695.53;5058963;28;20010;-73
2023/05/19 11:23:32;;;;;;;;;;;;;;;19.75;36.05;102702.63;5051818;28;19946;-73
2023/05/19 11:26:03;;;;;;;;;;;;;;;19.97;34.71;102704.09;5052271;28;19944;-73
2023/05/19 11:28:29;;;;;;;;;;;;;;;19.80;35.62;102699.88;5067069;28;20045;-73
2023/05/19 11:30:56;;;;;;;;;;;;;;;20.04;37.48;102696.41;5060031;28;20028;-73
2023/05/19 11:33:25;;;;;;;;;;;;;;;20.04;34.28;102694.50;5065087;28;19953;-71
2023/05/19 11:35:52;;;;;;;;;;;;;;;20.60;37.04;102685.00;5064045;28;19950;-71
2023/05/19 11:38:18;;;;;;;;;;;;;;;19.99;35.70;102688.31;5066587;28;20311;-72
2023/05/19 11:40:44;;;;;;;;;;;;;;;20.91;36.25;102677.22;5061499;28;20431;-74
2023/05/19 11:43:09;;;;;;;;;;;;;;;20.06;35.71;102691.50;5067536;28;19980;-71
2023/05/19 11:45:35;;;;;;;;;;;;;;;19.16;34.81;102689.97;5065087;28;20439;-72
2023/05/19 11:48:04;;;;;;;;;;;;;;;18.96;35.39;102690.06;5055449;28;19927;-72
2023/05/19 11:50:32;;;;;;;;;;;;;;;18.87;37.30;102686.31;5058574;28;19943;-71
2023/05/19 11:53:01;;;;;;;;;;;;;;;18.14;38.07;102684.84;5063514;28;19959;-72
2023/05/19 11:55:26;;;;;;;;;;;;;;;18.26;39.20;102679.97;5065734;28;19950;-72
2023/05/19 11:57:58;;;;;;;;;;;;;;;18.30;39.13;102690.28;5064527;28;19928;-71
2023/05/19 12:00:25;;;;;;;;;;;;;;;19.23;37.34;102684.22;5064668;28;19947;-75
2023/05/19 12:02:50;;;;;;;;;;;;;;;20.48;33.94;102676.41;5047699;28;19940;-74
2023/05/19 12:05:23;;;;;;;;;;;;;;;21.09;35.59;102676.44;5047626;28;19945;-74
2023/05/19 12:07:50;;;;;;;;;;;;;;;20.59;34.14;102677.91;5064268;28;19943;-75
2023/05/19 12:10:17;;;;;;;;;;;;;;;20.92;36.19;102682.38;5048239;28;19936;-75
2023/05/19 12:12:44;;;;;;;;;;;;;;;20.20;33.84;102676.13;5045929;28;19961;-74
2023/05/19 12:15:09;;;;;;;;;;;;;;;19.53;35.69;102683.22;5034298;28;19953;-73
2023/05/19 12:17:35;;;;;;;;;;;;;;;18.85;40.53;102678.47;5066026;28;19935;-73
2023/05/19 12:20:02;;;;;;;;;;;;;;;18.56;37.79;102681.00;5060601;28;19932;-73
2023/05/19 12:22:29;;;;;;;;;;;;;;;18.93;36.37;102671.63;5051764;28;19934;-75
2023/05/19 12:24:55;;;;;;;;;;;;;;;19.91;35.08;102662.53;5060120;28;19951;-73
2023/05/19 12:27:25;;;;;;;;;;;;;;;21.22;32.29;102653.09;5063643;28;19938;-73
2023/05/19 12:29:51;;;;;;;;;;;;;;;22.44;29.86;102648.28;5061780;28;20425;-71
2023/05/19 12:32:17;;;;;;;;;;;;;;;22.02;30.97;102655.63;5064876;28;19950;-73
2023/05/19 12:34:43;;;;;;;;;;;;;;;21.56;31.52;102652.06;5064988;28;19957;-71
2023/05/19 12:37:09;;;;;;;;;;;;;;;20.83;33.86;102656.91;5062886;28;20378;-74
2023/05/19 12:39:35;;;;;;;;;;;;;;;19.55;34.64;102659.28;5063343;28;19941;-71
2023/05/19 12:42:08;;;;;;;;;;;;;;;19.58;35.12;102650.59;5047703;28;19938;-73